Time;durP1;ratioP1;P1;durP2;ratioP2;P2;SDS_P1;SDS_P2;PMS_P1;PMS_P2;Temp;Humidity;BMP_temperature;BMP_pressure;BME280_temperature;BME280_humidity;BME280_pressure;Samples;Min_cycle;Max_cycle;Signal;HPM_P1;HPM_P2
2022/12/02 00:00:40;;;;;;;11.13;8.73;;;;;;;16.07;57.73;102789.97;6230942;22;20011;-79
2022/12/02 00:03:11;;;;;;;9.60;7.82;;;;;;;16.07;57.73;102783.88;6308980;22;20471;-78
2022/12/02 00:05:37;;;;;;;10.68;8.43;;;;;;;16.07;57.92;102784.78;6281652;22;20003;-78
2022/12/02 00:08:22;;;;;;;11.45;8.75;;;;;;;16.06;57.96;102785.59;6256138;22;20444;-78
2022/12/02 00:10:50;;;;;;;11.07;8.65;;;;;;;16.07;57.79;102789.97;6281748;22;20048;-79
2022/12/02 00:13:40;;;;;;;11.05;8.23;;;;;;;16.06;57.79;102795.13;6308907;22;20011;-78
2022/12/02 00:16:17;;;;;;;11.18;8.85;;;;;;;16.06;57.80;102790.78;6281620;22;20023;-78
2022/12/02 00:18:42;;;;;;;10.38;8.45;;;;;;;16.05;57.88;102786.44;6291545;22;20050;-82
2022/12/02 00:21:08;;;;;;;11.75;9.13;;;;;;;16.06;57.66;102784.72;6273047;22;20105;-81
2022/12/02 00:23:33;;;;;;;11.75;8.80;;;;;;;16.05;57.86;102791.63;6269807;22;20007;-81
2022/12/02 00:25:58;;;;;;;13.13;9.52;;;;;;;16.06;57.41;102789.91;6269097;22;20026;-81
2022/12/02 00:28:24;;;;;;;12.13;9.35;;;;;;;16.04;57.71;102790.75;6269000;22;20007;-81
2022/12/02 00:30:49;;;;;;;10.88;8.75;;;;;;;16.04;57.56;102788.13;6292221;22;20003;-78
2022/12/02 00:33:17;;;;;;;13.98;9.40;;;;;;;16.06;57.71;102787.31;6281268;22;20450;-78
2022/12/02 00:35:42;;;;;;;13.13;9.50;;;;;;;16.05;57.49;102789.03;6256440;22;20014;-78
2022/12/02 00:38:08;;;;;;;11.30;9.00;;;;;;;16.04;57.66;102788.13;6281043;22;20423;-78
2022/12/02 00:40:34;;;;;;;12.20;10.07;;;;;;;16.06;57.69;102779.53;6280975;22;20364;-78
2022/12/02 00:46:30;;;;;;;12.00;9.13;;;;;;;16.05;57.60;102770.88;6282392;22;20007;-78
2022/12/02 00:48:29;;;;;;;11.27;8.82;;;;;;;16.04;57.95;102766.50;6309219;22;20026;-79
2022/12/02 00:50:54;;;;;;;11.27;9.10;;;;;;;16.03;57.85;102757.81;6281285;22;20332;-78
2022/12/02 00:53:19;;;;;;;13.02;10.13;;;;;;;16.02;57.63;102753.47;6281219;22;20056;-78
2022/12/02 00:55:45;;;;;;;11.95;9.43;;;;;;;16.03;57.61;102756.97;6256110;22;20340;-78
2022/12/02 00:58:10;;;;;;;12.32;9.95;;;;;;;16.02;57.70;102755.19;6230267;22;20014;-78
2022/12/02 01:00:35;;;;;;;11.93;9.43;;;;;;;16.02;57.69;102758.66;6255757;22;20010;-78
2022/12/02 01:03:01;;;;;;;13.07;10.10;;;;;;;16.02;57.68;102766.44;6255649;22;20424;-78
2022/12/02 01:05:26;;;;;;;13.18;10.50;;;;;;;16.02;57.71;102766.44;6255410;22;20305;-78
2022/12/02 01:07:51;;;;;;;12.73;10.15;;;;;;;16.02;57.58;102765.56;6255495;22;19999;-79
2022/12/02 01:10:17;;;;;;;11.70;10.27;;;;;;;16.02;57.77;102774.22;6256886;22;20010;-79
2022/12/02 01:12:42;;;;;;;11.82;9.55;;;;;;;16.01;57.63;102762.09;6257381;22;20060;-78
2022/12/02 01:15:08;;;;;;;10.90;9.27;;;;;;;16.02;57.74;102768.16;6255729;22;20316;-78
2022/12/02 01:17:34;;;;;;;13.60;10.73;;;;;;;16.02;57.37;102762.97;6255924;22;20014;-78
2022/12/02 01:19:59;;;;;;;12.10;10.20;;;;;;;16.02;57.48;102765.56;6255339;22;20347;-79
2022/12/02 01:22:24;;;;;;;14.20;10.70;;;;;;;16.01;57.39;102767.28;6255552;22;20486;-78
2022/12/02 01:24:50;;;;;;;14.63;10.38;;;;;;;16.01;57.51;102764.69;6255352;22;20007;-78
2022/12/02 01:27:15;;;;;;;13.23;9.85;;;;;;;16.02;57.44;102768.16;6230187;22;20013;-78
2022/12/02 01:29:40;;;;;;;14.20;10.23;;;;;;;16.00;57.60;102762.94;6283934;22;19999;-78
2022/12/02 01:32:06;;;;;;;11.60;10.18;;;;;;;16.01;57.42;102759.50;6258913;22;20414;-78
2022/12/02 01:34:31;;;;;;;14.00;10.75;;;;;;;16.00;57.48;102760.34;6284650;22;20424;-78
2022/12/02 01:36:57;;;;;;;11.82;10.25;;;;;;;15.99;57.59;102763.78;6259004;22;20086;-79
2022/12/02 01:39:22;;;;;;;13.02;10.60;;;;;;;16.00;57.46;102756.84;6259379;22;20351;-78
2022/12/02 01:41:48;;;;;;;13.63;10.82;;;;;;;15.99;57.48;102758.56;6233745;22;20081;-78
2022/12/02 01:44:13;;;;;;;12.32;10.60;;;;;;;15.99;57.48;102757.72;6258703;22;20030;-78
2022/12/02 01:46:39;;;;;;;13.25;10.40;;;;;;;15.99;57.55;102758.56;6259138;22;20014;-78
2022/12/02 01:49:05;;;;;;;12.63;10.88;;;;;;;16.00;57.44;102757.75;6278902;22;20020;-78
2022/12/02 01:51:30;;;;;;;12.18;10.88;;;;;;;16.00;57.44;102764.66;6253372;22;20014;-78
2022/12/02 01:53:56;;;;;;;12.27;10.65;;;;;;;15.99;57.18;102766.38;6279075;22;20499;-79
2022/12/02 01:56:22;;;;;;;13.00;10.68;;;;;;;15.99;57.32;102773.28;6228225;22;20026;-78
2022/12/02 01:58:47;;;;;;;12.70;10.48;;;;;;;15.99;57.18;102771.56;6253640;22;20016;-79
2022/12/02 02:01:24;;;;;;;12.65;11.02;;;;;;;15.99;57.46;102773.28;6253563;22;20050;-78
2022/12/02 02:03:50;;;;;;;12.18;9.93;;;;;;;15.99;57.58;102773.28;6278974;22;20003;-78
2022/12/02 02:06:15;;;;;;;15.00;11.15;;;;;;;15.98;57.18;102768.91;6253840;22;20054;-78
2022/12/02 05:02:49;;;;;;;13.18;10.77;;;;;;;15.83;56.63;102660.34;6247407;22;20346;31
2022/12/02 05:05:51;;;;;;;10.88;9.43;;;;;;;15.82;56.71;102656.84;6243576;23;20000;-88
2022/12/02 05:12:16;;;;;;;11.52;9.63;;;;;;;15.87;56.87;102663.88;6239566;23;20069;-87
2022/12/02 06:54:49;;;;;;;24.65;12.75;;;;;;;16.00;56.87;102661.69;6287438;22;20014;-83
2022/12/02 06:57:53;;;;;;;33.22;13.93;;;;;;;16.06;56.84;102663.53;6308536;22;20000;-86
2022/12/02 11:43:27;;;;;;;10.02;7.78;;;;;;;15.80;54.87;102629.97;6269792;22;20067;-83
2022/12/02 11:49:03;;;;;;;10.50;7.22;;;;;;;15.80;54.56;102627.38;6273211;23;20259;-84
2022/12/02 11:55:31;;;;;;;10.90;7.65;;;;;;;15.77;55.07;102619.53;6274443;22;20092;-84
2022/12/02 12:06:22;;;;;;;9.38;7.28;;;;;;;15.80;54.74;102609.22;6268714;22;20054;-84
2022/12/02 12:09:15;;;;;;;10.20;7.45;;;;;;;15.79;54.72;102609.19;6247333;23;20020;-84
2022/12/02 16:23:23;;;;;;;8.25;6.53;;;;;;;15.73;53.75;102633.25;6246750;22;20030;-81
2022/12/02 18:41:56;;;;;;;10.82;7.50;;;;;;;15.98;54.31;102684.13;6234706;22;20072;31
2022/12/02 18:44:53;;;;;;;9.63;7.90;;;;;;;15.96;54.49;102677.09;6244218;23;20021;-84
2022/12/02 19:04:51;;;;;;;9.77;8.40;;;;;;;16.01;54.03;102673.81;6154494;23;20038;-84
2022/12/02 19:24:21;;;;;;;9.00;8.05;;;;;;;16.11;54.00;102666.25;6309298;22;20008;-85
2022/12/02 19:33:21;;;;;;;8.88;7.85;;;;;;;16.03;54.23;102671.25;6193161;23;20027;-83
2022/12/02 19:40:01;;;;;;;10.07;8.02;;;;;;;15.99;54.28;102669.41;6213784;23;20009;-84
2022/12/02 19:49:45;;;;;;;10.07;8.27;;;;;;;16.01;54.34;102663.41;6294922;22;20054;-83
2022/12/02 19:56:33;;;;;;;10.68;8.45;;;;;;;16.07;54.13;102670.50;6243808;23;20008;-84
2022/12/02 20:02:54;;;;;;;9.90;7.88;;;;;;;16.14;54.07;102667.22;6243173;23;20030;-85
2022/12/02 20:26:49;;;;;;;11.20;8.90;;;;;;;16.00;54.65;102671.16;6303169;22;20034;-86
2022/12/02 20:39:43;;;;;;;10.82;8.73;;;;;;;15.99;54.73;102664.22;6096253;23;20047;-84
2022/12/02 20:57:37;;;;;;;11.13;8.38;;;;;;;16.18;54.14;102675.97;6311163;22;20026;-83
2022/12/02 22:33:38;;;;;;;9.80;8.50;;;;;;;15.88;54.72;102647.50;6307125;22;20466;-80
2022/12/02 22:36:04;;;;;;;11.35;9.38;;;;;;;15.84;54.66;102654.31;6288640;22;20015;-80
2022/12/02 22:38:30;;;;;;;11.13;9.75;;;;;;;15.81;54.57;102655.13;6264167;22;20018;-82
2022/12/02 22:40:59;;;;;;;10.75;9.65;;;;;;;15.78;54.52;102648.94;6290905;22;20003;-81
2022/12/02 22:43:24;;;;;;;9.85;8.82;;;;;;;15.77;54.72;102655.88;6258726;22;20011;-80
